Time;durP1;ratioP1;P1;durP2;ratioP2;P2;SDS_P1;SDS_P2;PMS_P1;PMS_P2;Temp;Humidity;BMP_temperature;BMP_pressure;BME280_temperature;BME280_humidity;BME280_pressure;Samples;Min_cycle;Max_cycle;Signal;HPM_P1;HPM_P2
2020/12/20 00:01:41;;;;;;;13.55;6.35;;;;;;;7.48;100.00;101445.41;5043181;28;20120;-82
2020/12/20 00:04:07;;;;;;;13.75;6.53;;;;;;;7.55;100.00;101448.75;5051946;28;20070;-82
2020/12/20 00:06:36;;;;;;;11.57;5.75;;;;;;;7.59;100.00;101442.53;5045291;28;20032;-82
2020/12/20 00:09:06;;;;;;;16.48;6.18;;;;;;;7.63;100.00;101443.31;5050693;28;20578;-83
2020/12/20 00:11:37;;;;;;;13.63;6.43;;;;;;;7.60;100.00;101444.25;5072328;28;20039;-82
2020/12/20 00:14:26;;;;;;;22.58;7.05;;;;;;;7.68;100.00;101429.19;5046642;28;20031;-80
2020/12/20 00:16:47;;;;;;;15.10;7.35;;;;;;;7.65;100.00;101434.50;5055908;28;20105;-82
2020/12/20 00:19:12;;;;;;;15.65;6.22;;;;;;;7.81;100.00;101435.00;5055330;28;20115;-81
2020/12/20 00:21:38;;;;;;;12.07;5.90;;;;;;;7.76;100.00;101437.75;5054185;28;20082;-81
2020/12/20 00:24:03;;;;;;;10.63;5.32;;;;;;;7.84;100.00;101429.69;5049243;28;20634;-81
2020/12/20 00:26:28;;;;;;;19.35;6.03;;;;;;;7.88;100.00;101431.34;5067185;28;20058;-82
2020/12/20 00:28:53;;;;;;;14.57;6.65;;;;;;;7.90;100.00;101447.09;5048621;28;20083;-81
2020/12/20 00:31:19;;;;;;;12.65;6.28;;;;;;;7.89;100.00;101440.97;5054232;28;20025;-82
2020/12/20 00:33:44;;;;;;;15.65;6.40;;;;;;;7.89;100.00;101435.69;5056741;28;20032;-81
2020/12/20 00:36:09;;;;;;;13.00;5.97;;;;;;;7.90;100.00;101441.81;5049573;28;20481;-81
2020/12/20 00:38:34;;;;;;;13.63;6.75;;;;;;;7.92;100.00;101438.22;5052401;28;20075;-81
2020/12/20 00:41:00;;;;;;;11.13;6.38;;;;;;;7.98;100.00;101450.38;5060571;28;20032;-81
2020/12/20 00:43:25;;;;;;;14.63;5.60;;;;;;;7.95;100.00;101451.34;5051569;28;20562;-81
2020/12/20 00:45:50;;;;;;;12.75;5.72;;;;;;;7.89;100.00;101448.84;5052243;28;20025;-81
2020/12/20 00:48:15;;;;;;;15.30;6.22;;;;;;;7.97;100.00;101446.88;5049413;28;20028;-82
2020/12/20 00:50:41;;;;;;;21.60;6.30;;;;;;;7.98;100.00;101451.28;5052865;28;20025;-82
2020/12/20 00:53:06;;;;;;;9.43;5.65;;;;;;;7.97;100.00;101457.41;5051869;28;20106;-82
2020/12/20 00:55:31;;;;;;;11.40;5.63;;;;;;;7.95;100.00;101451.34;5052535;28;20028;-82
2020/12/20 00:57:56;;;;;;;11.90;5.70;;;;;;;7.90;100.00;101452.34;5053319;28;20021;-82
2020/12/20 01:00:22;;;;;;;14.27;6.03;;;;;;;7.99;100.00;101453.00;5058345;28;20029;-82
2020/12/20 01:02:47;;;;;;;17.90;6.50;;;;;;;8.02;100.00;101447.63;5052312;28;20032;-82
2020/12/20 01:05:12;;;;;;;15.00;5.80;;;;;;;8.01;100.00;101450.31;5057684;28;20037;-82
2020/12/20 01:07:37;;;;;;;15.75;7.03;;;;;;;8.03;100.00;101444.13;5054825;28;20446;-81
2020/12/20 01:10:03;;;;;;;14.73;5.90;;;;;;;7.95;100.00;101435.53;5061107;28;20044;-82
2020/12/20 01:12:28;;;;;;;16.00;7.00;;;;;;;8.13;100.00;101454.41;5059176;28;20028;-80
2020/12/20 01:14:53;;;;;;;14.18;5.60;;;;;;;8.10;100.00;101436.94;5055044;28;20067;-82
2020/12/20 01:17:18;;;;;;;17.23;5.95;;;;;;;8.22;100.00;101454.19;5052546;28;20082;-81
2020/12/20 01:19:44;;;;;;;13.93;5.80;;;;;;;8.32;99.67;101447.78;5061942;28;20020;-82
2020/12/20 01:22:09;;;;;;;14.32;5.80;;;;;;;8.37;99.11;101447.72;5057577;28;20029;-80
2020/12/20 01:24:34;;;;;;;14.88;6.25;;;;;;;8.40;99.02;101447.63;5056457;28;20489;-81
2020/12/20 01:27:00;;;;;;;18.55;5.28;;;;;;;8.39;99.35;101456.44;5056587;28;20033;-81
2020/12/20 01:29:25;;;;;;;12.68;6.22;;;;;;;8.44;99.04;101457.19;5056117;28;20031;-82
2020/12/20 01:31:50;;;;;;;23.50;5.68;;;;;;;8.47;98.67;101451.84;5056579;28;20017;-81
2020/12/20 01:34:15;;;;;;;13.48;5.90;;;;;;;8.34;98.98;101434.59;5053879;28;20413;-81
2020/12/20 01:36:41;;;;;;;12.45;5.15;;;;;;;8.41;99.19;101444.97;5059150;28;20066;-81
2020/12/20 01:39:06;;;;;;;24.17;6.00;;;;;;;8.37;98.91;101445.94;5078563;28;20119;-81
2020/12/20 01:41:31;;;;;;;20.73;6.10;;;;;;;8.41;98.86;101447.59;5059202;28;20069;-82
2020/12/20 01:43:57;;;;;;;15.70;5.80;;;;;;;8.30;98.85;101439.06;5033664;28;20550;-82
2020/12/20 01:46:22;;;;;;;14.73;5.50;;;;;;;8.29;99.02;101442.63;5060001;28;20035;-81
2020/12/20 01:48:50;;;;;;;17.55;5.07;;;;;;;8.39;98.87;101452.03;5054043;28;20035;-81
2020/12/20 01:51:15;;;;;;;16.58;4.97;;;;;;;8.24;99.25;101455.91;5056429;28;20081;-81
2020/12/20 01:53:41;;;;;;;14.57;5.55;;;;;;;8.19;99.28;101451.66;5055538;28;20021;-81
2020/12/20 01:56:07;;;;;;;20.25;5.82;;;;;;;8.15;99.61;101450.00;5045620;28;20056;-82
2020/12/20 01:58:36;;;;;;;16.63;5.60;;;;;;;7.99;99.87;101441.59;5071714;28;20603;-81
2020/12/20 02:01:04;;;;;;;16.35;5.43;;;;;;;8.12;99.43;101450.06;5036778;28;20033;-81
2020/12/20 02:03:30;;;;;;;25.33;5.03;;;;;;;8.21;99.16;101442.78;5056702;28;20017;-81
2020/12/20 02:05:55;;;;;;;20.70;4.50;;;;;;;8.11;99.48;101445.69;5056834;28;20017;-81
2020/12/20 02:08:20;;;;;;;22.38;6.03;;;;;;;8.16;99.27;101449.09;5052469;28;20148;-81
2020/12/20 02:11:03;;;;;;;16.05;4.68;;;;;;;8.21;98.92;101442.78;5060202;28;20045;-81
2020/12/20 02:13:28;;;;;;;16.40;5.15;;;;;;;8.24;98.37;101434.84;5059959;28;20025;-81
2020/12/20 02:15:53;;;;;;;14.15;4.45;;;;;;;8.30;98.48;101447.84;5060697;28;20538;-82
2020/12/20 02:18:19;;;;;;;16.90;4.10;;;;;;;8.40;97.82;101445.00;5044299;28;20750;-81
2020/12/20 02:20:47;;;;;;;11.88;4.00;;;;;;;8.33;97.62;101449.50;5056449;28;20025;-81
2020/12/20 02:23:12;;;;;;;12.82;4.88;;;;;;;8.39;97.99;101459.94;5058056;28;20486;-81
2020/12/20 02:25:40;;;;;;;22.30;4.30;;;;;;;8.45;97.54;101454.53;5055461;28;20055;-81
2020/12/20 02:28:05;;;;;;;16.88;4.57;;;;;;;8.53;97.08;101455.19;5055911;28;20496;-81
2020/12/20 02:30:31;;;;;;;11.60;3.70;;;;;;;8.52;96.94;101447.31;5058481;28;20564;-81
2020/12/20 02:32:56;;;;;;;11.55;3.45;;;;;;;8.57;96.74;101450.69;5040585;28;20039;-81
2020/12/20 02:35:21;;;;;;;18.15;3.50;;;;;;;8.60;96.56;101450.63;5057193;28;20064;-81
2020/12/20 02:37:47;;;;;;;10.85;3.55;;;;;;;8.57;96.56;101451.53;5058158;28;20028;-82
2020/12/20 02:40:12;;;;;;;12.82;3.38;;;;;;;8.64;96.21;101456.69;5062376;28;20029;-81
2020/12/20 02:42:37;;;;;;;15.90;3.25;;;;;;;8.62;96.54;101453.19;5048795;28;20599;-80
2020/12/20 02:45:02;;;;;;;17.95;3.67;;;;;;;8.59;96.36;101454.16;5056975;28;20036;-82
2020/12/20 02:47:28;;;;;;;12.35;3.20;;;;;;;8.64;96.40;101457.53;5049905;28;20107;-81
2020/12/20 02:49:53;;;;;;;15.82;4.18;;;;;;;8.64;96.44;101460.19;5057693;28;20056;-82
2020/12/20 02:52:18;;;;;;;19.08;3.70;;;;;;;8.50;96.85;101454.41;5058157;28;20112;-81
2020/12/20 02:54:43;;;;;;;18.30;4.50;;;;;;;8.37;97.23;101460.88;5052565;28;20025;-81
2020/12/20 02:57:09;;;;;;;18.02;4.65;;;;;;;8.27;97.45;101460.22;5059996;28;20063;-81
2020/12/20 02:59:34;;;;;;;16.25;5.35;;;;;;;8.09;97.84;101458.91;5054107;28;20033;-81
2020/12/20 03:05:21;;;;;;;18.60;4.05;;;;;;;7.87;98.84;101460.31;5040717;28;20167;-81
2020/12/20 03:07:47;;;;;;;11.00;3.80;;;;;;;7.76;99.38;101457.94;5052491;28;20112;-81
2020/12/20 03:10:12;;;;;;;13.55;4.32;;;;;;;7.72;100.00;101461.53;5053429;28;20509;-81
2020/12/20 03:12:38;;;;;;;26.00;5.32;;;;;;;7.68;100.00;101452.84;5052174;28;20032;-82
2020/12/20 03:15:04;;;;;;;14.05;4.50;;;;;;;7.63;100.00;101456.47;5038635;28;20453;-81
2020/12/20 03:17:30;;;;;;;17.45;5.68;;;;;;;7.64;100.00;101456.44;5048613;28;20025;-81
2020/12/20 03:19:56;;;;;;;15.30;4.65;;;;;;;7.54;100.00;101473.34;5054472;28;20036;-81
2020/12/20 03:22:21;;;;;;;16.67;5.28;;;;;;;7.54;100.00;101468.06;5056726;28;20462;-80
2020/12/20 03:24:46;;;;;;;12.95;5.43;;;;;;;7.47;100.00;101472.59;5050801;28;20021;-80
2020/12/20 03:27:11;;;;;;;14.73;4.65;;;;;;;7.43;100.00;101468.31;5054944;28;20029;-80
2020/12/20 03:29:37;;;;;;;14.18;4.97;;;;;;;7.38;100.00;101466.66;5048365;28;20020;-80
2020/12/20 03:32:02;;;;;;;15.13;4.88;;;;;;;7.45;100.00;101463.88;5047361;28;20032;-80
2020/12/20 03:34:27;;;;;;;17.25;4.90;;;;;;;7.40;100.00;101464.88;5051159;28;20175;-79
2020/12/20 03:36:52;;;;;;;12.15;5.57;;;;;;;7.34;100.00;101468.50;5050770;28;20401;-82
2020/12/20 03:39:19;;;;;;;12.48;4.82;;;;;;;7.38;100.00;101467.53;5052023;28;20055;-79
2020/12/20 03:41:44;;;;;;;16.35;4.60;;;;;;;7.30;100.00;101465.97;5054245;28;20048;-82
2020/12/20 03:44:09;;;;;;;13.13;4.25;;;;;;;7.33;100.00;101465.88;5055903;28;20502;-81
2020/12/20 03:46:35;;;;;;;18.52;6.13;;;;;;;7.24;100.00;101465.19;5051014;28;20033;-81
2020/12/20 03:49:00;;;;;;;18.98;5.95;;;;;;;7.29;100.00;101464.25;5055310;28;20020;-79
2020/12/20 03:51:25;;;;;;;19.85;4.53;;;;;;;7.30;100.00;101461.56;5054448;28;20051;-82
2020/12/20 03:53:50;;;;;;;14.80;5.00;;;;;;;7.30;100.00;101461.56;5053836;28;20059;-81
2020/12/20 03:56:16;;;;;;;14.88;5.05;;;;;;;7.25;100.00;101458.16;5054929;28;20029;-82
2020/12/20 03:58:41;;;;;;;8.52;4.45;;;;;;;7.21;100.00;101460.00;5051043;28;20047;-81
2020/12/20 04:01:06;;;;;;;11.20;4.03;;;;;;;7.22;100.00;101469.59;5058507;28;20426;-81
2020/12/20 04:03:31;;;;;;;12.00;4.70;;;;;;;7.21;100.00;101481.03;5065314;28;20040;-81
2020/12/20 04:05:57;;;;;;;13.85;5.10;;;;;;;7.24;100.00;101478.34;5056204;28;20665;-81
2020/12/20 04:08:22;;;;;;;16.17;5.10;;;;;;;7.22;100.00;101474.88;5051188;28;20056;-82
2020/12/20 04:10:47;;;;;;;14.20;4.70;;;;;;;7.21;100.00;101472.28;5051128;28;20038;-81
2020/12/20 04:13:12;;;;;;;12.25;5.00;;;;;;;7.18;100.00;101467.97;5053313;28;20546;-81
2020/12/20 04:15:38;;;;;;;17.23;5.97;;;;;;;7.09;100.00;101473.41;5053169;28;20040;-82
2020/12/20 04:18:03;;;;;;;10.30;4.88;;;;;;;7.25;100.00;101477.44;5054371;28;20056;-81
2020/12/20 04:20:28;;;;;;;9.95;4.72;;;;;;;7.23;100.00;101476.63;5057337;28;20035;-81
2020/12/20 04:22:54;;;;;;;15.57;5.30;;;;;;;7.25;100.00;101477.44;5055368;28;20028;-82
2020/12/20 04:25:19;;;;;;;18.13;4.53;;;;;;;7.34;100.00;101484.28;5052496;28;20029;-81
2020/12/20 04:27:45;;;;;;;13.15;5.50;;;;;;;7.19;100.00;101480.19;5054156;28;20020;-82
2020/12/20 04:30:10;;;;;;;16.10;5.00;;;;;;;7.31;100.00;101478.22;5055284;28;20089;-81
2020/12/20 04:32:36;;;;;;;19.08;6.20;;;;;;;7.33;100.00;101485.19;5052914;28;20033;-81
2020/12/20 04:35:01;;;;;;;13.18;5.80;;;;;;;7.34;100.00;101489.53;5040331;28;20020;-80
2020/12/20 04:37:26;;;;;;;15.30;6.75;;;;;;;7.32;100.00;101488.69;5052588;28;20540;-82
2020/12/20 04:39:52;;;;;;;16.38;5.20;;;;;;;7.31;100.00;101480.84;5054299;28;20490;-82
2020/12/20 04:42:17;;;;;;;19.98;5.57;;;;;;;7.29;100.00;101480.03;5054999;28;20024;-82
2020/12/20 04:44:43;;;;;;;18.98;5.35;;;;;;;7.25;100.00;101476.56;5072191;28;20028;-81
2020/12/20 04:47:09;;;;;;;16.52;5.97;;;;;;;7.23;100.00;101488.91;5048830;28;20029;-81
2020/12/20 04:49:35;;;;;;;16.33;5.90;;;;;;;7.17;100.00;101486.38;5068821;28;20449;-82
2020/12/20 04:52:01;;;;;;;13.75;5.43;;;;;;;7.11;100.00;101483.88;5057250;28;20068;-82
2020/12/20 04:54:26;;;;;;;16.60;5.90;;;;;;;7.08;100.00;101483.91;5052626;28;20036;-82
2020/12/20 04:56:52;;;;;;;14.23;5.93;;;;;;;6.97;100.00;101482.38;5058506;28;20021;-82
2020/12/20 04:59:17;;;;;;;20.48;5.95;;;;;;;6.94;100.00;101481.59;5053914;28;20108;-81
2020/12/20 05:01:43;;;;;;;17.58;5.38;;;;;;;6.98;100.00;101480.63;5054014;28;20081;-81
2020/12/20 05:04:08;;;;;;;14.68;6.13;;;;;;;6.90;100.00;101480.75;5047231;28;20028;-81
2020/12/20 05:06:34;;;;;;;20.77;6.20;;;;;;;7.01;100.00;101478.78;5054359;28;20505;-81
2020/12/20 05:09:08;;;;;;;19.17;6.32;;;;;;;6.97;100.00;101474.47;5057298;28;20041;-81
2020/12/20 05:11:35;;;;;;;12.80;5.95;;;;;;;6.92;100.00;101478.97;5052776;28;20033;-81
2020/12/20 05:14:02;;;;;;;21.70;6.35;;;;;;;6.92;100.00;101478.09;5054313;28;20021;-81
2020/12/20 05:16:33;;;;;;;21.23;6.82;;;;;;;6.98;100.00;101473.63;5063632;28;20076;-81
2020/12/20 05:18:59;;;;;;;15.20;5.80;;;;;;;6.96;100.00;101475.38;5058642;28;20039;-82
2020/12/20 05:21:26;;;;;;;22.48;8.55;;;;;;;6.95;100.00;101472.78;5050728;28;20026;-81
2020/12/20 05:23:51;;;;;;;17.13;6.30;;;;;;;6.91;100.00;101473.75;5052447;28;20032;-82
2020/12/20 05:26:24;;;;;;;14.70;6.10;;;;;;;7.01;100.00;101481.41;5054193;28;20025;-80
2020/12/20 05:28:49;;;;;;;23.40;7.60;;;;;;;6.94;100.00;101487.69;5053668;28;20027;-81
2020/12/20 05:31:14;;;;;;;11.60;5.65;;;;;;;6.97;100.00;101490.25;5056134;28;20111;-81
2020/12/20 05:33:39;;;;;;;16.77;7.50;;;;;;;6.87;100.00;101486.06;5051869;28;20459;-82
2020/12/20 05:36:07;;;;;;;22.67;6.78;;;;;;;6.95;100.00;101492.06;5057406;28;20021;-81
2020/12/20 05:38:33;;;;;;;25.02;6.70;;;;;;;6.83;100.00;101492.31;5059630;28;20417;-81
2020/12/20 05:40:59;;;;;;;17.80;6.18;;;;;;;6.92;100.00;101496.50;5036380;28;20028;-81
2020/12/20 05:43:27;;;;;;;19.38;6.38;;;;;;;6.88;100.00;101494.84;5055659;28;20036;-82
2020/12/20 05:45:57;;;;;;;22.55;6.25;;;;;;;6.91;100.00;101486.88;5057771;28;20017;-80
2020/12/20 05:48:26;;;;;;;23.60;6.88;;;;;;;6.98;100.00;101485.88;5055840;28;20538;-80
2020/12/20 05:51:00;;;;;;;13.98;5.30;;;;;;;6.95;100.00;101480.69;5060086;28;20021;-80
2020/12/20 05:53:29;;;;;;;21.73;6.18;;;;;;;6.96;100.00;101480.66;5035709;28;20032;-80
2020/12/20 05:55:56;;;;;;;20.13;5.75;;;;;;;6.99;100.00;101496.38;5056058;28;20183;-80
2020/12/20 05:58:22;;;;;;;18.98;5.78;;;;;;;6.99;100.00;101495.50;5059334;28;20074;-80
2020/12/20 06:00:48;;;;;;;19.20;6.43;;;;;;;6.98;100.00;101494.63;5047215;28;20064;-80
2020/12/20 06:03:15;;;;;;;20.55;5.82;;;;;;;7.02;100.00;101500.69;5053170;28;20048;-80
2020/12/20 06:05:42;;;;;;;15.43;6.15;;;;;;;6.96;100.00;101501.66;5055888;28;20040;-80
2020/12/20 06:08:12;;;;;;;21.85;6.03;;;;;;;6.90;100.00;101501.78;5053512;28;20032;-81
2020/12/20 06:10:41;;;;;;;17.80;5.95;;;;;;;6.88;100.00;101503.59;5052171;28;20117;-81
2020/12/20 06:13:09;;;;;;;26.67;6.50;;;;;;;6.92;100.00;101510.50;5054560;28;20136;-81
2020/12/20 06:15:37;;;;;;;26.35;6.22;;;;;;;6.94;100.00;101513.13;5053537;28;20066;-81
2020/12/20 06:18:08;;;;;;;21.27;6.13;;;;;;;6.78;100.00;101519.53;5054674;28;20021;-81
2020/12/20 06:20:38;;;;;;;21.90;5.90;;;;;;;6.77;100.00;101517.78;5061967;28;20484;-80
2020/12/20 06:23:04;;;;;;;18.95;6.60;;;;;;;6.88;100.00;101521.97;5059091;28;20029;-81
2020/12/20 06:25:29;;;;;;;21.15;6.15;;;;;;;6.87;100.00;101519.38;5058117;28;20032;-81
2020/12/20 06:28:04;;;;;;;21.35;5.80;;;;;;;6.74;100.00;101516.97;5054064;28;20036;-80
2020/12/20 06:30:30;;;;;;;27.58;6.55;;;;;;;6.77;100.00;101525.69;5047482;28;20035;-81
2020/12/20 06:33:02;;;;;;;26.38;7.10;;;;;;;6.77;100.00;101517.78;5056725;28;20409;-80
2020/12/20 06:35:30;;;;;;;23.73;6.43;;;;;;;6.87;100.00;101517.59;5062449;28;20067;-81
2020/12/20 06:37:56;;;;;;;27.80;7.22;;;;;;;6.81;100.00;101507.22;5053281;28;20023;-81
2020/12/20 06:40:42;;;;;;;21.52;6.35;;;;;;;6.86;100.00;101518.50;5058884;28;20028;-80
2020/12/20 06:43:08;;;;;;;;;;;;;;;6.82;100.00;101511.56;5053626;28;20597;-81
2020/12/20 06:45:48;;;;;;;17.03;5.43;;;;;;;6.81;100.00;101512.47;5059307;28;19916;-81
2020/12/20 06:48:14;;;;;;;18.98;5.95;;;;;;;6.81;100.00;101514.22;5055920;28;20629;-81
2020/12/20 06:50:41;;;;;;;27.38;6.88;;;;;;;6.70;100.00;101511.78;5061891;28;20040;-81
2020/12/20 06:53:08;;;;;;;26.98;6.50;;;;;;;6.74;100.00;101516.97;5057323;28;20036;-81
2020/12/20 06:55:34;;;;;;;19.17;7.05;;;;;;;6.78;100.00;101519.53;5061186;28;20038;-80
2020/12/20 06:58:14;;;;;;;24.70;6.90;;;;;;;6.78;100.00;101520.41;5053830;28;20924;-80
2020/12/20 07:00:55;;;;;;;25.23;6.78;;;;;;;6.77;100.00;101525.69;5054950;28;20027;-81
2020/12/20 07:03:38;;;;;;;19.65;5.25;;;;;;;6.86;100.00;101520.25;5052284;28;20021;-81
2020/12/20 07:06:11;;;;;;;23.52;6.45;;;;;;;6.72;100.00;101525.75;5043840;28;20485;-81
2020/12/20 07:08:37;;;;;;;21.25;5.70;;;;;;;6.71;100.00;101529.28;5053539;28;20435;-81
2020/12/20 07:11:06;;;;;;;19.05;5.47;;;;;;;6.68;100.00;101537.25;5058163;28;20029;-81
2020/12/20 07:13:35;;;;;;;18.55;5.85;;;;;;;6.62;100.00;101534.69;5053897;28;20025;-81
2020/12/20 07:16:09;;;;;;;18.83;5.80;;;;;;;6.53;100.00;101540.13;5053018;28;20417;-81
2020/12/20 07:18:49;;;;;;;26.45;7.53;;;;;;;6.59;100.00;101545.28;5057316;28;20035;-81
2020/12/20 07:21:46;;;;;;;17.63;5.65;;;;;;;6.52;100.00;101543.63;5056888;28;20031;-80
2020/12/20 07:24:19;;;;;;;20.00;5.90;;;;;;;6.52;100.00;101552.34;5044996;28;20025;-80
2020/12/20 07:26:46;;;;;;;22.63;6.55;;;;;;;6.53;100.00;101548.00;5052509;28;20052;-81
2020/12/20 07:29:12;;;;;;;30.13;7.10;;;;;;;6.56;100.00;101550.56;5037058;28;20024;-79
2020/12/20 07:31:37;;;;;;;24.02;5.57;;;;;;;6.54;100.00;101555.84;5058665;28;20066;-79
2020/12/20 07:34:04;;;;;;;17.67;6.38;;;;;;;6.52;100.00;101552.34;5055273;28;20436;-80
2020/12/20 07:36:30;;;;;;;20.38;5.70;;;;;;;6.61;100.00;101546.97;5051151;28;20493;-80
2020/12/20 07:38:55;;;;;;;19.83;5.97;;;;;;;6.55;100.00;101552.31;5056021;28;20028;-80
2020/12/20 07:41:24;;;;;;;21.10;6.22;;;;;;;6.55;100.00;101554.94;5054832;28;20536;-80
2020/12/20 07:43:51;;;;;;;29.23;7.53;;;;;;;6.63;100.00;101560.09;5048095;28;20013;-80
2020/12/20 07:46:18;;;;;;;17.05;5.88;;;;;;;6.57;100.00;101563.66;5047424;28;20025;-79
2020/12/20 07:48:43;;;;;;;14.98;5.43;;;;;;;6.51;100.00;101563.75;5046441;28;20402;-79
2020/12/20 07:51:18;;;;;;;19.25;6.03;;;;;;;6.56;100.00;101574.19;5065127;28;20031;-80
2020/12/20 07:53:47;;;;;;;18.77;6.25;;;;;;;6.53;100.00;101569.88;5054487;28;20111;-80
2020/12/20 07:56:30;;;;;;;20.25;5.65;;;;;;;6.57;100.00;101582.03;5057764;28;20024;-79
2020/12/20 07:58:59;;;;;;;21.80;7.40;;;;;;;6.59;100.00;101584.66;5052685;28;20071;-81
2020/12/20 08:01:24;;;;;;;26.15;7.43;;;;;;;6.62;100.00;101582.84;5054997;28;20060;-82
2020/12/20 08:04:16;;;;;;;17.30;4.75;;;;;;;6.63;100.00;101584.59;5053835;28;20464;-81
2020/12/20 08:06:44;;;;;;;23.40;6.82;;;;;;;6.61;100.00;101594.25;5054218;28;20028;-79
2020/12/20 08:09:15;;;;;;;17.85;6.15;;;;;;;6.65;100.00;101595.06;5056569;28;20572;-82
2020/12/20 08:11:41;;;;;;;22.52;5.50;;;;;;;6.62;100.00;101590.72;5056372;28;20059;-80
2020/12/20 08:14:09;;;;;;;27.85;6.50;;;;;;;6.68;100.00;101601.16;5058080;28;20060;-82
2020/12/20 08:16:37;;;;;;;24.52;5.57;;;;;;;6.58;100.00;101609.19;5060291;28;20508;-80
2020/12/20 08:19:07;;;;;;;26.67;5.65;;;;;;;6.62;100.00;101605.63;5049317;28;20033;-80
2020/12/20 08:22:10;;;;;;;25.00;6.35;;;;;;;6.70;100.00;101609.84;5050202;28;20090;-80
2020/12/20 08:24:37;;;;;;;30.05;6.80;;;;;;;6.81;100.00;101601.78;5054838;28;20462;-80
2020/12/20 08:27:29;;;;;;;20.08;5.75;;;;;;;6.90;100.00;101603.41;5046736;28;20500;-81
2020/12/20 08:29:57;;;;;;;27.23;6.40;;;;;;;7.03;100.00;101606.69;5059023;28;20085;-81
2020/12/20 08:32:26;;;;;;;28.00;6.65;;;;;;;6.93;100.00;101606.00;5050576;28;20068;-81
2020/12/20 08:34:51;;;;;;;30.05;8.07;;;;;;;7.09;100.00;101610.09;5051938;28;20036;-81
2020/12/20 08:37:19;;;;;;;28.48;8.55;;;;;;;7.10;100.00;101613.56;5050372;28;20041;-81
2020/12/20 08:39:45;;;;;;;28.35;6.70;;;;;;;7.19;100.00;101614.28;5050240;28;20053;-81
2020/12/20 08:42:13;;;;;;;18.40;6.03;;;;;;;7.20;100.00;101610.75;5055509;28;20039;-82
2020/12/20 08:44:41;;;;;;;20.35;6.18;;;;;;;7.29;100.00;101607.09;5044649;28;20021;-81
2020/12/20 08:47:10;;;;;;;23.50;6.28;;;;;;;7.31;100.00;101607.91;5048680;28;20025;-83
2020/12/20 08:49:37;;;;;;;26.25;5.93;;;;;;;7.39;100.00;101608.66;5052794;28;20025;-81
2020/12/20 08:52:08;;;;;;;23.83;6.78;;;;;;;7.45;100.00;101605.91;5051141;28;20025;-81
2020/12/20 08:54:33;;;;;;;19.65;6.30;;;;;;;7.46;100.00;101612.88;5050207;28;20047;-81
2020/12/20 08:57:03;;;;;;;15.93;5.57;;;;;;;7.46;100.00;101614.66;5053965;28;20029;-81
2020/12/20 08:59:31;;;;;;;25.13;7.28;;;;;;;7.55;100.00;101613.63;5050032;28;20025;-81
2020/12/20 09:01:59;;;;;;;28.45;7.15;;;;;;;7.53;100.00;101617.16;5027615;28;20843;-81
2020/12/20 09:04:31;;;;;;;24.95;6.60;;;;;;;7.48;100.00;101610.22;5040833;28;20031;-81
2020/12/20 09:07:01;;;;;;;24.67;7.35;;;;;;;7.62;100.00;101613.44;5048382;28;20681;-82
2020/12/20 09:09:27;;;;;;;25.35;6.28;;;;;;;7.63;100.00;101619.56;5052508;28;20588;-81
2020/12/20 09:11:52;;;;;;;22.88;6.90;;;;;;;7.63;100.00;101624.84;5044601;28;20108;-81
2020/12/20 09:14:18;;;;;;;24.77;6.95;;;;;;;7.72;100.00;101629.94;5054262;28;20057;-80
2020/12/20 09:16:44;;;;;;;22.90;6.35;;;;;;;7.72;100.00;101633.41;5051496;28;20100;-81
2020/12/20 09:19:12;;;;;;;25.10;7.35;;;;;;;7.79;100.00;101634.19;5059746;28;20076;-81
2020/12/20 09:21:37;;;;;;;20.30;6.35;;;;;;;7.93;100.00;101642.66;5055346;28;20074;-81
2020/12/20 09:24:03;;;;;;;21.73;5.75;;;;;;;8.02;99.26;101638.97;5063117;28;20401;-82
2020/12/20 09:26:28;;;;;;;20.13;5.63;;;;;;;8.01;99.26;101631.97;5057254;28;20063;-81
2020/12/20 09:28:53;;;;;;;30.85;7.32;;;;;;;8.03;99.28;101635.41;5040828;28;20025;-81
2020/12/20 09:31:20;;;;;;;21.38;7.03;;;;;;;8.15;98.85;101637.81;5059374;28;20028;-82
2020/12/20 09:33:48;;;;;;;23.85;7.03;;;;;;;8.36;97.96;101638.22;5059422;28;20028;-82
2020/12/20 09:36:23;;;;;;;29.02;6.22;;;;;;;8.45;96.79;101649.47;5058485;28;20492;-81
2020/12/20 09:38:51;;;;;;;25.35;6.15;;;;;;;8.67;95.92;101639.28;5056184;28;20500;-81
2020/12/20 09:41:19;;;;;;;23.20;5.63;;;;;;;8.88;94.99;101634.38;5059150;28;20054;-81
2020/12/20 09:43:45;;;;;;;32.72;5.78;;;;;;;9.70;91.02;101641.91;5058939;28;20031;-81
2020/12/20 09:46:20;;;;;;;27.77;6.28;;;;;;;9.74;91.32;101633.88;5055521;28;20033;-81
2020/12/20 09:48:47;;;;;;;20.33;6.20;;;;;;;9.89;90.31;101639.59;5057246;28;20020;-82
2020/12/20 09:51:12;;;;;;;25.35;5.40;;;;;;;9.10;93.28;101645.28;5055205;28;20025;-82
2020/12/20 09:53:38;;;;;;;27.95;6.30;;;;;;;9.20;93.20;101642.38;5059613;28;20036;-82
2020/12/20 09:56:03;;;;;;;27.05;7.25;;;;;;;9.66;90.75;101641.13;5055676;28;20111;-82
2020/12/20 09:58:28;;;;;;;23.85;6.45;;;;;;;10.25;88.53;101638.56;5057498;28;20028;-83
2020/12/20 10:00:54;;;;;;;24.42;7.05;;;;;;;10.37;87.47;101639.94;5056448;28;20025;-81
2020/12/20 10:03:19;;;;;;;23.48;5.38;;;;;;;11.27;84.23;101638.78;5056057;28;20038;-81
2020/12/20 10:05:45;;;;;;;23.95;5.90;;;;;;;10.41;86.67;101630.16;5058557;28;20025;-81
2020/12/20 10:08:14;;;;;;;23.83;5.28;;;;;;;9.71;89.70;101649.78;5026741;28;20129;-80
2020/12/20 10:10:39;;;;;;;23.92;6.70;;;;;;;10.19;88.02;101644.00;5058759;28;20044;-82
2020/12/20 10:13:04;;;;;;;22.45;5.03;;;;;;;10.94;84.93;101641.63;5058588;28;20462;-81
2020/12/20 10:15:30;;;;;;;19.48;5.55;;;;;;;10.89;85.13;101633.88;5063236;28;20036;-82
2020/12/20 10:17:56;;;;;;;20.00;5.55;;;;;;;10.33;86.95;101638.31;5063738;28;20043;-83
2020/12/20 10:20:21;;;;;;;15.68;5.15;;;;;;;9.93;88.65;101646.53;5056756;28;20032;-80
2020/12/20 10:22:47;;;;;;;27.55;6.35;;;;;;;9.52;90.22;101651.19;5056801;28;20115;-81
2020/12/20 10:25:12;;;;;;;27.17;7.07;;;;;;;9.47;90.87;101646.03;5041175;28;20457;-82
2020/12/20 10:27:37;;;;;;;19.23;5.45;;;;;;;9.47;90.86;101647.81;5056829;28;20090;-81
2020/12/20 10:30:03;;;;;;;26.63;6.53;;;;;;;9.97;88.87;101648.16;5065686;28;20025;-82
2020/12/20 10:32:28;;;;;;;19.73;5.15;;;;;;;10.12;88.91;101656.50;5055240;28;20036;-83
2020/12/20 10:34:53;;;;;;;23.02;5.50;;;;;;;9.68;90.78;101654.28;5061296;28;20031;-80
2020/12/20 10:37:19;;;;;;;19.42;5.85;;;;;;;9.81;89.92;101651.25;5060988;28;20078;-82
2020/12/20 10:39:45;;;;;;;33.45;7.32;;;;;;;9.88;89.41;101646.66;5060862;28;20036;-82
2020/12/20 10:42:13;;;;;;;20.17;5.50;;;;;;;9.71;89.60;101644.50;5055946;28;20037;-82
2020/12/20 10:44:38;;;;;;;29.65;7.25;;;;;;;10.11;88.32;101643.34;5059209;28;20027;-82
2020/12/20 10:47:04;;;;;;;22.90;5.95;;;;;;;10.46;86.85;101638.81;5059042;28;20021;-82
2020/12/20 10:49:29;;;;;;;22.27;6.10;;;;;;;11.37;84.31;101638.41;5055916;28;20021;-81
2020/12/20 10:51:56;;;;;;;26.35;6.18;;;;;;;11.34;83.23;101649.06;5057110;28;20516;-82
2020/12/20 10:54:22;;;;;;;24.17;5.20;;;;;;;11.22;84.05;101635.44;5063224;28;20025;-82
2020/12/20 10:56:48;;;;;;;33.42;5.90;;;;;;;11.13;83.25;101629.53;5051468;28;20437;-81
2020/12/20 10:59:13;;;;;;;32.15;6.40;;;;;;;10.75;84.60;101638.75;5062876;28;20028;-81
2020/12/20 11:01:39;;;;;;;16.83;5.50;;;;;;;10.37;86.50;101629.38;5053601;28;20029;-82
2020/12/20 11:04:04;;;;;;;28.10;8.38;;;;;;;9.89;88.46;101642.22;5054760;28;20116;-81
2020/12/20 11:06:30;;;;;;;18.40;5.70;;;;;;;9.71;89.39;101641.84;5055781;28;20036;-81
2020/12/20 11:08:56;;;;;;;19.33;5.50;;;;;;;9.85;89.18;101637.06;5041901;28;20081;-81
2020/12/20 11:11:30;;;;;;;26.85;6.38;;;;;;;9.64;89.98;101644.69;5059146;28;20052;-81
2020/12/20 11:13:55;;;;;;;28.48;6.43;;;;;;;9.49;90.38;101641.59;5062190;28;20029;-81
2020/12/20 11:16:21;;;;;;;19.55;6.57;;;;;;;9.43;90.69;101647.00;5059459;28;20024;-81
2020/12/20 11:18:47;;;;;;;20.05;5.38;;;;;;;9.34;90.59;101640.22;5056805;28;20485;-81
2020/12/20 11:21:13;;;;;;;23.90;6.97;;;;;;;9.37;90.85;101641.03;5056455;28;20409;-81
2020/12/20 11:23:39;;;;;;;34.00;7.85;;;;;;;9.41;91.07;101642.69;5062930;28;20025;-81